Ssandc Technologies Holdings (SSNC) Latest Bloomsberg Price


Mffais Ranking #2370 Overall / #71 Industry
Industry: Application Software

Number of Companies: 153 (Ranking #1128 Overall/#30 Industry)
Inflow: $ 180,350 (K) (Ranking #652 Overall/#15 Industry)
Outflow: $ -243,952 (K)
Mffais Flow: $ -63,601 (K) (Ranking #2370 Overall/#71 Industry)


Receive a FREE weekly executive review of stocks moving into the top 10, taking the top industy spot or moving up within their industry. Sent directly to your Inbox every Saturday. Sign up today and get last week's review immediately sent to you.

We value and respect your privacy. Please read our Terms and Conditions which states our firm commitment to your privacy. Your email address will not be shared with a third party, nor will it be sold or used for purposes other than subscription for the weekly review.

Owner CPOR Shares Action Qty Chg Invested (K) Total Current Value (K)
Cantillon Capital Management Llc 2016-09-30 1,318,666 New Holding 1,318,666 $ 41,880 $ 41,880
Palestra Capital Management Llc 2016-09-30 2,216,400 Added More 817,000 $ 25,947 $ 70,392
Omega Advisors Inc 2016-09-30 703,300 New Holding 703,300 $ 22,336 $ 22,336
Henderson Group Plc 2016-09-30 489,404 New Holding 489,404 $ 15,543 $ 15,543
Nationwide Fund Advisors 2016-09-30 331,172 New Holding 331,172 $ 10,518 $ 10,518
Harbor Spring Capital Llc 2016-09-30 1,758,639 Added More 308,639 $ 9,802 $ 55,854
New York State Common Retirement Fund 2016-09-30 519,377 Added More 240,937 $ 7,652 $ 16,495
Thrivent Financial For Lutherans 2016-09-30 164,200 New Holding 164,200 $ 5,214 $ 5,214
Clearfield Capital Management Lp 2016-09-30 840,209 Added More 151,353 $ 4,806 $ 26,685
Southpoint Capital Advisors Lp 2016-09-30 3,500,000 Added More 125,000 $ 3,970 $ 111,160
Fisher Asset Management Llc 2016-09-30 138,950 Added More 118,900 $ 3,776 $ 4,413
Dimensional Fund Advisors Lp 2016-09-30 901,967 Added More 114,635 $ 3,640 $ 28,646
Arrowpoint Asset Management Llc 2016-09-30 1,632,906 Added More 77,670 $ 2,466 $ 51,861
Incline Global Management Llc 2016-09-30 1,410,556 Added More 72,592 $ 2,305 $ 44,799
Three Peaks Capital Management Llc 2016-09-30 166,188 Added More 58,188 $ 1,848 $ 5,278
Castleark Management Llc 2016-09-30 119,396 Added More 56,250 $ 1,786 $ 3,792
Twin Tree Management Lp 2016-09-30 67,623 Added More 51,158 $ 1,624 $ 2,147
Stevens Capital Management Lp 2016-09-30 48,316 New Holding 48,316 $ 1,534 $ 1,534
Palisade Capital Management Llc Nj 2016-09-30 487,660 Added More 34,128 $ 1,083 $ 15,488
Landscape Capital Management L L C 2016-09-30 32,847 New Holding 32,847 $ 1,043 $ 1,043
Southeast Asset Advisors Inc 2016-09-30 28,505 New Holding 28,505 $ 905 $ 905
Meiji Yasuda Asset Management Co Ltd 2016-09-30 27,165 New Holding 27,165 $ 862 $ 862
Northern Trust Corp 2016-09-30 736,162 Added More 25,028 $ 794 $ 23,380
Burgundy Asset Management Ltd 2016-09-30 2,615,607 Added More 22,409 $ 711 $ 83,071
Td Asset Management Inc 2016-09-30 213,900 Added More 20,100 $ 638 $ 6,793
Bessemer Group Inc 2016-09-30 27,782 Added More 19,793 $ 628 $ 882
Carleon Capital Partners Llc 2016-09-30 18,221 New Holding 18,221 $ 578 $ 578
Veritable L P 2016-09-30 17,860 New Holding 17,860 $ 567 $ 567
Shell Asset Management Co 2016-09-30 16,686 New Holding 16,686 $ 529 $ 529
Gideon Capital Advisors Inc 2016-09-30 26,982 Added More 13,003 $ 412 $ 856
Crestpoint Capital Management Llc 2016-09-30 12,800 New Holding 12,800 $ 406 $ 406
Dynamic Technology Lab Private Ltd 2016-09-30 12,398 New Holding 12,398 $ 393 $ 393
Walleye Trading Llc 2016-09-30 51,297 Added More 10,974 $ 348 $ 1,629
Rhumbline Advisers 2016-09-30 170,891 Added More 9,081 $ 288 $ 5,427
Westpac Banking Corp 2016-09-30 18,415 Added More 8,971 $ 284 $ 584
Cutler Group Lp 2016-09-30 25,008 Added More 8,748 $ 277 $ 794
Scout Investments Inc 2016-09-30 8,656 New Holding 8,656 $ 274 $ 274
Squarepoint Ops Llc 2016-09-30 8,028 New Holding 8,028 $ 254 $ 254
Capstone Investment Advisors Llc 2016-09-30 7,800 New Holding 7,800 $ 247 $ 247
Quadrature Capital Ltd 2016-09-30 7,698 New Holding 7,698 $ 244 $ 244
World Asset Management Inc 2016-09-30 6,661 New Holding 6,661 $ 211 $ 211
Omers Administration Corp 2016-09-30 80,700 Added More 6,600 $ 209 $ 2,563
Cibc Asset Management Inc 2016-09-30 6,232 New Holding 6,232 $ 197 $ 197
Sei Investments Co 2016-09-30 24,069 Added More 6,087 $ 193 $ 764
Massmutual Trust Co Fsb Adv 2016-06-30 11,831 Added More 6,088 $ 170 $ 332
Gamble Jones Investment Counsel 2016-09-30 62,446 Added More 4,534 $ 144 $ 1,983
California State Teachers Retirement System 2016-09-30 359,800 Added More 3,100 $ 98 $ 11,427
Legal General Group Plc 2016-09-30 16,318 Added More 2,954 $ 93 $ 518
Mirae Asset Global Investments Co Ltd 2016-09-30 51,794 Added More 2,738 $ 86 $ 1,644
Global X Management Co Llc 2016-09-30 2,732 New Holding 2,732 $ 86 $ 86
Group One Trading L P 2016-09-30 9,990 Added More 2,686 $ 85 $ 317
Blackrock Inc 2016-09-30 26,773 Added More 2,519 $ 80 $ 850
Aperio Group Llc 2016-09-30 10,772 Added More 2,482 $ 78 $ 342
Nn Investment Partners Holdings N V 2016-09-30 28,520 Added More 1,690 $ 53 $ 905
Bronfman E L Rothschild L P 2016-09-30 2,404 Added More 1,622 $ 51 $ 76
Brant Point Investment Management Llc 2016-09-30 74,600 Added More 800 $ 25 $ 2,369
Pacer Advisors Inc 2016-09-30 6,895 Added More 665 $ 21 $ 218
Advisor Group Inc 2016-09-30 2,665 Added More 401 $ 12 $ 84
Northwestern Mutual Wealth Management Co 2016-09-30 356 Added More 148 $ 4 $ 11
Utah Retirement Systems 2016-09-30 30,700 Added More 100 $ 3 $ 975
Ftb Advisors Inc 2016-09-30 50 New Holding 50 $ 1 $ 1
Peoples United Financial Inc 2016-09-30 17,296 Added More 30 $ 0 $ 549
Washington Trust Bank 2016-09-30 22 New Holding 22 $ 0 $ 0
Assetmark Inc 2016-09-30 145 Added More 13 $ 0 $ 4
Ladenburg Thalmann Financial Services Inc 2016-09-30 309 Added More 13 $ 0 $ 9
Panagora Asset Management Inc 2016-09-30 7,116 No Change 0 $ 0 $ 226
Plante Moran Financial Advisors Llc 2016-09-30 98 No Change 0 $ 0 $ 3
Harel Insurance Investments Financial Services Ltd 2016-09-30 208 No Change 0 $ 0 $ 6
Mark Sheptoff Financial Planning Llc 2016-09-30 800 No Change 0 $ 0 $ 25
Mutual Of America Capital Management Llc 2016-09-30 13,284 No Change 0 $ 0 $ 421
Advisory Services Network Llc 2016-09-30 80 No Change 0 $ 0 $ 2
Formula Growth Ltd 2016-09-30 126,200 No Change 0 $ 0 $ 4,008
Teachers Advisors Inc 2016-09-30 140,036 No Change 0 $ 0 $ 4,447
Qs Investors Llc 2016-09-30 10 No Change 0 $ 0 $ 0
Strategic Global Advisors Llc 2016-09-30 7,420 Sold Some -20 $ -0 $ 235
First Personal Financial Services 2016-09-30 116 Sold Some -42 $ -1 $ 3
Finemark National Bank Trust 2016-09-30 0 Sold All -48 $ -1 $ 0
Regions Financial Corp 2016-09-30 7,137 Sold Some -75 $ -2 $ 226
Archford Capital Strategies Llc 2016-09-30 78 Sold Some -78 $ -2 $ 2
Msi Financial Services Inc 2016-09-30 1,479 Sold Some -159 $ -5 $ 46
Financial Architects Inc 2016-09-30 0 Sold All -180 $ -5 $ 0
American International Group Inc 2016-09-30 4,073 Sold Some -193 $ -6 $ 129
Pnc Financial Services Group Inc 2016-09-30 942 Sold Some -200 $ -6 $ 29
Checchi Capital Advisers Llc 2016-09-30 0 Sold All -296 $ -9 $ 0
Blackrock Investment Management Llc 2016-09-30 67,151 Sold Some -355 $ -11 $ 2,132
Nisa Investment Advisors Llc 2016-09-30 600 Sold Some -600 $ -19 $ 19
Wealthtrust-Arizona Llc 2016-09-30 878 Sold Some -998 $ -31 $ 27
Ibm Retirement Fund 2016-09-30 15,861 Sold Some -1,133 $ -35 $ 503
Eagle Asset Management Inc 2016-09-30 68,323 Sold Some -1,257 $ -39 $ 2,169
Boston Family Office Llc 2016-09-30 51,995 Sold Some -1,275 $ -40 $ 1,651
Advisors Asset Management Inc 2016-09-30 22,840 Sold Some -1,298 $ -41 $ 725
Bradley Foster Sargent Inc Ct 2016-09-30 48,800 Sold Some -1,350 $ -42 $ 1,549
Verition Fund Management Llc 2016-09-30 10,076 Sold Some -1,582 $ -50 $ 320
Putnam Investments Llc 2016-09-30 676,972 Sold Some -1,820 $ -57 $ 21,500
Horizon Kinetics Llc 2016-09-30 12,668 Sold Some -2,136 $ -67 $ 402
Princeton Alpha Management Lp 2016-09-30 23,587 Sold Some -2,142 $ -68 $ 749
Hsbc Holdings Plc 2016-09-30 10,610 Sold Some -2,796 $ -88 $ 336
Royce Associates Lp 2016-09-30 16,100 Sold Some -2,900 $ -92 $ 511
Alkeon Capital Management Llc 2016-09-30 2,672,750 Sold Some -3,400 $ -107 $ 84,886
Fifth Third Bancorp 2016-09-30 4,389 Sold Some -3,429 $ -108 $ 139
Turtle Creek Asset Management Inc 2016-09-30 725,200 Sold Some -5,300 $ -168 $ 23,032
Teacher Retirement System Of Texas 2016-09-30 19,076 Sold Some -5,874 $ -186 $ 605
Fny Managed Accounts Llc 2016-09-30 0 Sold All -6,000 $ -190 $ 0
Envestnet Asset Management Inc 2016-09-30 24,098 Sold Some -6,444 $ -204 $ 765
Swiss National Bank 2016-09-30 288,610 Sold Some -6,900 $ -219 $ 9,166
Tower Research Capital Llc Trc 2016-09-30 0 Sold All -7,281 $ -231 $ 0
Gsa Capital Partners Llp 2016-09-30 0 Sold All -7,301 $ -231 $ 0
Guggenheim Capital Llc 2016-09-30 35,774 Sold Some -7,374 $ -234 $ 1,136
Campbell Co Investment Adviser Llc 2016-09-30 0 Sold All -7,452 $ -236 $ 0
Summit Securities Group Llc 2016-09-30 0 Sold All -7,812 $ -248 $ 0
M Holdings Securities Inc 2016-09-30 6,840 Sold Some -8,260 $ -262 $ 217
Peak6 Investments L P 2016-09-30 21,845 Sold Some -8,291 $ -263 $ 693
Quantbot Technologies Lp 2016-09-30 7,484 Sold Some -11,467 $ -364 $ 237
First Republic Investment Management Inc 2016-09-30 6,612 Sold Some -14,716 $ -467 $ 209
Gilder Gagnon Howe Co Llc 2016-09-30 740,554 Sold Some -14,768 $ -469 $ 23,519
Tudor Investment Corp Et Al 2016-09-30 23,303 Sold Some -15,246 $ -484 $ 740
Sg Americas Securities Llc 2016-09-30 0 Sold All -15,791 $ -501 $ 0
Harvest Capital Strategies Llc 2016-09-30 0 Sold All -16,398 $ -520 $ 0
Diam Co Ltd 2016-09-30 234,849 Sold Some -17,213 $ -546 $ 7,458
Secor Capital Advisors Lp 2016-09-30 0 Sold All -20,206 $ -641 $ 0
Cipher Capital Lp 2016-09-30 32,824 Sold Some -22,062 $ -700 $ 1,042
Seven Eight Capital Llc 2016-09-30 0 Sold All -22,900 $ -727 $ 0
Gotham Asset Management Llc 2016-09-30 0 Sold All -25,710 $ -816 $ 0
Barings Llc 2016-09-30 0 Sold All -29,000 $ -921 $ 0
Integre Asset Management Llc 2016-09-30 123,992 Sold Some -35,009 $ -1,111 $ 3,937
Ngam Advisors L P 2016-09-30 95,619 Sold Some -35,809 $ -1,137 $ 3,036
Raymond James Associates 2016-09-30 42,290 Sold Some -38,096 $ -1,209 $ 1,343
Trexquant Investment Lp 2016-09-30 0 Sold All -41,144 $ -1,306 $ 0
Mackenzie Financial Corp 2016-09-30 0 Sold All -41,600 $ -1,321 $ 0
Engineers Gate Manager Lp 2016-09-30 0 Sold All -41,900 $ -1,330 $ 0
Zurcher Kantonalbank Zurich Cantonalbank 2016-09-30 5,207 Sold Some -44,117 $ -1,401 $ 165
Laurion Capital Management Lp 2016-09-30 0 Sold All -48,000 $ -1,524 $ 0
Echo Street Capital Management Llc 2016-09-30 705,593 Sold Some -49,887 $ -1,584 $ 22,409
Timessquare Capital Management Llc 2016-09-30 2,432,425 Sold Some -51,275 $ -1,628 $ 77,253
Arbor Capital Management Llc 2016-06-30 0 Sold All -64,119 $ -1,800 $ 0
Marshall Wace Llp 2016-09-30 59,122 Sold Some -62,643 $ -1,989 $ 1,877
University Of Notre Dame Du Lac 2016-09-30 0 Sold All -67,490 $ -2,143 $ 0
Parametric Portfolio Associates Llc 2016-09-30 136,496 Sold Some -68,709 $ -2,182 $ 4,335
Monarch Partners Asset Management Llc 2016-09-30 215,769 Sold Some -75,875 $ -2,409 $ 6,852
Clinton Group Inc 2016-09-30 75,332 Sold Some -80,826 $ -2,567 $ 2,392
Emerald Acquisition Ltd 2016-09-30 983,892 Sold Some -104,332 $ -3,313 $ 31,248
Pioneer Investment Management Inc 2016-09-30 0 Sold All -109,992 $ -3,493 $ 0
Gam Holding Ag 2016-09-30 0 Sold All -112,184 $ -3,562 $ 0
Rs Investment Management Co Llc 2016-06-30 0 Sold All -129,169 $ -3,627 $ 0
Cubist Systematic Strategies Llc 2016-09-30 17,535 Sold Some -115,507 $ -3,668 $ 556
Tiger Legatus Capital Management Llc 2016-09-30 480,000 Sold Some -120,000 $ -3,811 $ 15,244
Valtura Capital Partners Llc 2016-09-30 0 Sold All -120,200 $ -3,817 $ 0
Waratah Capital Advisors Ltd 2016-09-30 0 Sold All -241,520 $ -7,670 $ 0
Msd Partners L P 2016-09-30 3,343,215 Sold Some -291,027 $ -9,243 $ 106,180
Park Presidio Capital Llc 2016-09-30 1,112,680 Sold Some -400,000 $ -12,704 $ 35,338
Junto Capital Management Lp 2016-09-30 0 Sold All -744,762 $ -23,653 $ 0
Valinor Management L P 2016-09-30 3,385,717 Sold Some -1,781,161 $ -56,569 $ 107,530
Chartwell Investment Partners Llc 2016-09-30 2,190,916 Sold Some -2,247,635 $ -71,384 $ 69,583